sensor_id;sensor_type;location;lat;lon;timestamp;temperature;humidity
17425;DHT22;8830;50.978;5.058;2023-02-15T00:00:09;3.30;99.90
17425;DHT22;8830;50.978;5.058;2023-02-15T00:02:38;3.30;99.90
17425;DHT22;8830;50.978;5.058;2023-02-15T00:05:06;3.30;99.90
17425;DHT22;8830;50.978;5.058;2023-02-15T00:07:33;3.30;99.90
17425;DHT22;8830;50.978;5.058;2023-02-15T00:10:01;3.30;99.90
17425;DHT22;8830;50.978;5.058;2023-02-15T00:12:32;3.40;99.90
17425;DHT22;8830;50.978;5.058;2023-02-15T00:15:01;3.30;99.90
17425;DHT22;8830;50.978;5.058;2023-02-15T00:17:28;3.80;99.90
17425;DHT22;8830;50.978;5.058;2023-02-15T00:19:56;3.20;99.90
17425;DHT22;8830;50.978;5.058;2023-02-15T00:22:23;3.20;99.90
17425;DHT22;8830;50.978;5.058;2023-02-15T00:24:51;3.20;99.90
17425;DHT22;8830;50.978;5.058;2023-02-15T00:27:19;3.20;99.90
17425;DHT22;8830;50.978;5.058;2023-02-15T00:29:46;3.40;99.90
17425;DHT22;8830;50.978;5.058;2023-02-15T00:32:18;3.20;99.90
17425;DHT22;8830;50.978;5.058;2023-02-15T00:34:45;3.30;99.90
17425;DHT22;8830;50.978;5.058;2023-02-15T00:37:12;3.20;99.90
17425;DHT22;8830;50.978;5.058;2023-02-15T00:39:39;3.20;99.90
17425;DHT22;8830;50.978;5.058;2023-02-15T00:42:06;3.20;99.90
17425;DHT22;8830;50.978;5.058;2023-02-15T00:44:33;3.20;99.90
17425;DHT22;8830;50.978;5.058;2023-02-15T00:47:01;3.20;99.90
17425;DHT22;8830;50.978;5.058;2023-02-15T00:49:31;3.20;99.90
17425;DHT22;8830;50.978;5.058;2023-02-15T00:52:00;3.20;99.90
17425;DHT22;8830;50.978;5.058;2023-02-15T00:54:29;3.20;99.90
17425;DHT22;8830;50.978;5.058;2023-02-15T00:56:56;3.10;99.90
17425;DHT22;8830;50.978;5.058;2023-02-15T00:59:26;3.10;99.90
17425;DHT22;8830;50.978;5.058;2023-02-15T01:01:58;3.10;99.90
17425;DHT22;8830;50.978;5.058;2023-02-15T01:04:26;3.00;99.90
17425;DHT22;8830;50.978;5.058;2023-02-15T01:06:54;3.50;99.90
17425;DHT22;8830;50.978;5.058;2023-02-15T01:09:24;3.00;99.90
17425;DHT22;8830;50.978;5.058;2023-02-15T01:11:52;3.00;99.90
17425;DHT22;8830;50.978;5.058;2023-02-15T01:14:20;2.90;99.90
17425;DHT22;8830;50.978;5.058;2023-02-15T01:16:47;2.90;99.90
17425;DHT22;8830;50.978;5.058;2023-02-15T01:19:17;2.90;99.90
17425;DHT22;8830;50.978;5.058;2023-02-15T01:21:44;3.70;99.90
17425;DHT22;8830;50.978;5.058;2023-02-15T01:24:13;2.80;99.90
17425;DHT22;8830;50.978;5.058;2023-02-15T01:26:41;2.80;99.90
17425;DHT22;8830;50.978;5.058;2023-02-15T01:29:08;2.70;99.90
17425;DHT22;8830;50.978;5.058;2023-02-15T01:31:36;2.70;99.90
17425;DHT22;8830;50.978;5.058;2023-02-15T01:34:04;4.30;99.90
17425;DHT22;8830;50.978;5.058;2023-02-15T01:36:33;2.70;99.90
17425;DHT22;8830;50.978;5.058;2023-02-15T01:39:06;2.70;99.90
17425;DHT22;8830;50.978;5.058;2023-02-15T01:41:37;2.60;99.90
17425;DHT22;8830;50.978;5.058;2023-02-15T01:47:02;2.60;99.90
17425;DHT22;8830;50.978;5.058;2023-02-15T01:49:29;2.60;99.90
17425;DHT22;8830;50.978;5.058;2023-02-15T01:51:58;3.30;99.90
17425;DHT22;8830;50.978;5.058;2023-02-15T01:54:30;2.70;99.90
17425;DHT22;8830;50.978;5.058;2023-02-15T01:57:05;2.60;99.90
17425;DHT22;8830;50.978;5.058;2023-02-15T01:59:35;2.90;99.90
17425;DHT22;8830;50.978;5.058;2023-02-15T02:02:07;2.60;99.90
17425;DHT22;8830;50.978;5.058;2023-02-15T02:04:38;2.60;99.90
17425;DHT22;8830;50.978;5.058;2023-02-15T02:07:07;2.50;99.90
17425;DHT22;8830;50.978;5.058;2023-02-15T02:09:36;2.50;99.90
17425;DHT22;8830;50.978;5.058;2023-02-15T02:12:05;2.60;99.90
17425;DHT22;8830;50.978;5.058;2023-02-15T02:14:34;2.70;99.90
17425;DHT22;8830;50.978;5.058;2023-02-15T02:17:05;2.50;99.90
17425;DHT22;8830;50.978;5.058;2023-02-15T02:19:58;3.00;99.90
17425;DHT22;8830;50.978;5.058;2023-02-15T02:23:03;2.40;99.90
17425;DHT22;8830;50.978;5.058;2023-02-15T02:28:57;2.40;99.90
17425;DHT22;8830;50.978;5.058;2023-02-15T02:31:47;2.40;99.90
17425;DHT22;8830;50.978;5.058;2023-02-15T02:34:28;2.40;99.90
17425;DHT22;8830;50.978;5.058;2023-02-15T02:37:02;3.30;99.90
17425;DHT22;8830;50.978;5.058;2023-02-15T02:39:37;2.40;99.90
17425;DHT22;8830;50.978;5.058;2023-02-15T02:42:16;2.40;99.90
17425;DHT22;8830;50.978;5.058;2023-02-15T02:44:48;2.40;99.90
17425;DHT22;8830;50.978;5.058;2023-02-15T02:47:21;2.30;99.90
17425;DHT22;8830;50.978;5.058;2023-02-15T02:49:58;3.00;99.90
17425;DHT22;8830;50.978;5.058;2023-02-15T02:52:39;2.60;99.90
17425;DHT22;8830;50.978;5.058;2023-02-15T02:55:10;2.30;99.90
17425;DHT22;8830;50.978;5.058;2023-02-15T02:57:43;2.30;99.90
17425;DHT22;8830;50.978;5.058;2023-02-15T03:00:16;2.40;99.90
17425;DHT22;8830;50.978;5.058;2023-02-15T03:02:45;2.40;99.90
17425;DHT22;8830;50.978;5.058;2023-02-15T03:05:18;1.90;99.90
17425;DHT22;8830;50.978;5.058;2023-02-15T03:07:49;2.60;99.90
17425;DHT22;8830;50.978;5.058;2023-02-15T03:10:18;2.40;99.90
17425;DHT22;8830;50.978;5.058;2023-02-15T03:12:48;2.30;99.90
17425;DHT22;8830;50.978;5.058;2023-02-15T03:15:31;2.30;99.90
17425;DHT22;8830;50.978;5.058;2023-02-15T03:18:22;3.00;99.90
17425;DHT22;8830;50.978;5.058;2023-02-15T03:20:54;2.20;99.90
17425;DHT22;8830;50.978;5.058;2023-02-15T03:23:25;2.20;99.90
17425;DHT22;8830;50.978;5.058;2023-02-15T03:25:59;2.30;99.90
17425;DHT22;8830;50.978;5.058;2023-02-15T03:28:30;2.30;99.90
17425;DHT22;8830;50.978;5.058;2023-02-15T03:31:01;4.40;99.90
17425;DHT22;8830;50.978;5.058;2023-02-15T03:33:30;2.50;99.90
17425;DHT22;8830;50.978;5.058;2023-02-15T03:36:02;2.20;99.90
17425;DHT22;8830;50.978;5.058;2023-02-15T03:38:35;2.20;99.90
17425;DHT22;8830;50.978;5.058;2023-02-15T03:41:04;2.10;99.90
17425;DHT22;8830;50.978;5.058;2023-02-15T03:43:41;2.10;99.90
17425;DHT22;8830;50.978;5.058;2023-02-15T03:46:13;2.10;99.90
17425;DHT22;8830;50.978;5.058;2023-02-15T03:48:46;2.10;99.90
17425;DHT22;8830;50.978;5.058;2023-02-15T03:51:21;3.00;99.90
17425;DHT22;8830;50.978;5.058;2023-02-15T03:54:04;2.10;99.90
17425;DHT22;8830;50.978;5.058;2023-02-15T03:56:36;2.10;99.90
17425;DHT22;8830;50.978;5.058;2023-02-15T03:59:04;2.00;99.90
17425;DHT22;8830;50.978;5.058;2023-02-15T04:01:59;2.00;99.90
17425;DHT22;8830;50.978;5.058;2023-02-15T04:04:34;1.90;99.90
17425;DHT22;8830;50.978;5.058;2023-02-15T04:07:04;1.90;99.90
17425;DHT22;8830;50.978;5.058;2023-02-15T04:09:33;2.90;99.90
17425;DHT22;8830;50.978;5.058;2023-02-15T04:12:17;1.90;99.90
17425;DHT22;8830;50.978;5.058;2023-02-15T04:14:44;2.90;99.90
17425;DHT22;8830;50.978;5.058;2023-02-15T04:17:29;3.90;99.90
17425;DHT22;8830;50.978;5.058;2023-02-15T04:19:56;3.50;99.90
17425;DHT22;8830;50.978;5.058;2023-02-15T04:22:43;1.80;99.90
17425;DHT22;8830;50.978;5.058;2023-02-15T04:25:28;1.90;99.90
17425;DHT22;8830;50.978;5.058;2023-02-15T04:27:55;1.90;99.90
17425;DHT22;8830;50.978;5.058;2023-02-15T04:30:24;1.80;99.90
17425;DHT22;8830;50.978;5.058;2023-02-15T04:32:53;1.80;99.90
17425;DHT22;8830;50.978;5.058;2023-02-15T04:35:20;1.80;99.90
17425;DHT22;8830;50.978;5.058;2023-02-15T04:37:50;1.80;99.90
17425;DHT22;8830;50.978;5.058;2023-02-15T04:40:22;1.70;99.90
17425;DHT22;8830;50.978;5.058;2023-02-15T04:42:52;2.30;99.90
17425;DHT22;8830;50.978;5.058;2023-02-15T04:45:19;1.90;99.90
17425;DHT22;8830;50.978;5.058;2023-02-15T04:47:46;1.70;99.90
17425;DHT22;8830;50.978;5.058;2023-02-15T04:50:13;1.90;99.90
17425;DHT22;8830;50.978;5.058;2023-02-15T04:52:41;1.60;99.90
17425;DHT22;8830;50.978;5.058;2023-02-15T04:55:09;2.90;99.90
17425;DHT22;8830;50.978;5.058;2023-02-15T04:57:36;3.60;99.90
17425;DHT22;8830;50.978;5.058;2023-02-15T05:00:08;1.50;99.90
17425;DHT22;8830;50.978;5.058;2023-02-15T05:02:35;1.60;99.90
17425;DHT22;8830;50.978;5.058;2023-02-15T05:05:03;1.60;99.90
17425;DHT22;8830;50.978;5.058;2023-02-15T05:07:31;1.60;99.90
17425;DHT22;8830;50.978;5.058;2023-02-15T05:09:58;1.60;99.90
17425;DHT22;8830;50.978;5.058;2023-02-15T05:12:26;1.50;99.90
17425;DHT22;8830;50.978;5.058;2023-02-15T05:14:53;2.50;99.90
17425;DHT22;8830;50.978;5.058;2023-02-15T05:17:20;1.40;99.90
17425;DHT22;8830;50.978;5.058;2023-02-15T05:19:48;1.40;99.90
17425;DHT22;8830;50.978;5.058;2023-02-15T05:22:16;1.40;99.90
17425;DHT22;8830;50.978;5.058;2023-02-15T05:24:44;1.30;99.90
17425;DHT22;8830;50.978;5.058;2023-02-15T05:27:28;1.30;99.90
17425;DHT22;8830;50.978;5.058;2023-02-15T05:30:13;1.30;99.90
17425;DHT22;8830;50.978;5.058;2023-02-15T05:32:40;1.30;99.90
17425;DHT22;8830;50.978;5.058;2023-02-15T05:35:11;1.30;99.90
17425;DHT22;8830;50.978;5.058;2023-02-15T05:37:39;1.70;99.90
17425;DHT22;8830;50.978;5.058;2023-02-15T05:40:08;1.30;99.90
17425;DHT22;8830;50.978;5.058;2023-02-15T05:42:38;1.30;99.90
17425;DHT22;8830;50.978;5.058;2023-02-15T05:45:06;1.30;99.90
17425;DHT22;8830;50.978;5.058;2023-02-15T05:47:33;2.00;99.90
17425;DHT22;8830;50.978;5.058;2023-02-15T05:50:01;1.80;99.90
17425;DHT22;8830;50.978;5.058;2023-02-15T05:52:33;1.40;99.90
17425;DHT22;8830;50.978;5.058;2023-02-15T05:55:00;1.20;99.90
17425;DHT22;8830;50.978;5.058;2023-02-15T05:57:29;1.20;99.90
17425;DHT22;8830;50.978;5.058;2023-02-15T05:59:58;1.20;99.90
17425;DHT22;8830;50.978;5.058;2023-02-15T06:02:25;1.20;99.90
17425;DHT22;8830;50.978;5.058;2023-02-15T06:04:52;1.30;99.90
17425;DHT22;8830;50.978;5.058;2023-02-15T06:07:19;1.20;99.90
17425;DHT22;8830;50.978;5.058;2023-02-15T06:09:46;1.20;99.90
17425;DHT22;8830;50.978;5.058;2023-02-15T06:12:13;1.20;99.90
17425;DHT22;8830;50.978;5.058;2023-02-15T06:14:41;1.20;99.90
17425;DHT22;8830;50.978;5.058;2023-02-15T06:17:10;1.20;99.90
17425;DHT22;8830;50.978;5.058;2023-02-15T06:19:37;1.20;99.90
17425;DHT22;8830;50.978;5.058;2023-02-15T06:22:04;1.10;99.90
17425;DHT22;8830;50.978;5.058;2023-02-15T06:24:35;1.10;99.90
17425;DHT22;8830;50.978;5.058;2023-02-15T06:27:02;1.20;99.90
17425;DHT22;8830;50.978;5.058;2023-02-15T06:29:29;1.20;99.90
17425;DHT22;8830;50.978;5.058;2023-02-15T06:31:56;1.20;99.90
17425;DHT22;8830;50.978;5.058;2023-02-15T06:34:27;1.20;99.90
17425;DHT22;8830;50.978;5.058;2023-02-15T06:36:54;1.20;99.90
17425;DHT22;8830;50.978;5.058;2023-02-15T06:39:22;3.10;99.90
17425;DHT22;8830;50.978;5.058;2023-02-15T06:41:49;1.20;99.90
17425;DHT22;8830;50.978;5.058;2023-02-15T06:44:16;1.20;99.90
17425;DHT22;8830;50.978;5.058;2023-02-15T06:46:43;1.20;99.90
17425;DHT22;8830;50.978;5.058;2023-02-15T06:49:13;2.10;99.90
17425;DHT22;8830;50.978;5.058;2023-02-15T06:51:42;1.20;99.90
17425;DHT22;8830;50.978;5.058;2023-02-15T06:54:10;2.40;99.90
17425;DHT22;8830;50.978;5.058;2023-02-15T06:56:37;2.20;99.90
17425;DHT22;8830;50.978;5.058;2023-02-15T06:59:04;3.70;99.90
17425;DHT22;8830;50.978;5.058;2023-02-15T07:01:31;1.30;99.90
17425;DHT22;8830;50.978;5.058;2023-02-15T07:03:58;1.30;99.90
17425;DHT22;8830;50.978;5.058;2023-02-15T07:06:25;1.30;99.90
17425;DHT22;8830;50.978;5.058;2023-02-15T07:08:53;1.40;99.90
17425;DHT22;8830;50.978;5.058;2023-02-15T07:11:22;1.50;99.90
17425;DHT22;8830;50.978;5.058;2023-02-15T07:14:06;1.60;99.90
17425;DHT22;8830;50.978;5.058;2023-02-15T07:16:35;1.70;99.90
17425;DHT22;8830;50.978;5.058;2023-02-15T07:19:02;1.70;99.90
17425;DHT22;8830;50.978;5.058;2023-02-15T07:23:58;2.00;99.90
17425;DHT22;8830;50.978;5.058;2023-02-15T07:26:28;2.10;99.90
17425;DHT22;8830;50.978;5.058;2023-02-15T07:28:56;2.70;99.90
17425;DHT22;8830;50.978;5.058;2023-02-15T07:31:24;3.80;99.90
17425;DHT22;8830;50.978;5.058;2023-02-15T07:33:51;3.00;99.90
17425;DHT22;8830;50.978;5.058;2023-02-15T07:36:19;3.90;99.90
17425;DHT22;8830;50.978;5.058;2023-02-15T07:38:50;6.90;99.90
17425;DHT22;8830;50.978;5.058;2023-02-15T07:41:22;1.40;99.90
17425;DHT22;8830;50.978;5.058;2023-02-15T07:43:51;4.20;99.90
17425;DHT22;8830;50.978;5.058;2023-02-15T07:46:21;4.90;99.90
17425;DHT22;8830;50.978;5.058;2023-02-15T07:48:48;6.00;99.90
17425;DHT22;8830;50.978;5.058;2023-02-15T07:51:17;4.90;99.90
17425;DHT22;8830;50.978;5.058;2023-02-15T07:53:45;5.00;99.90
17425;DHT22;8830;50.978;5.058;2023-02-15T07:56:17;5.10;99.90
17425;DHT22;8830;50.978;5.058;2023-02-15T07:58:45;5.80;99.90
17425;DHT22;8830;50.978;5.058;2023-02-15T08:01:19;5.70;99.90
17425;DHT22;8830;50.978;5.058;2023-02-15T08:06:14;6.40;99.90
17425;DHT22;8830;50.978;5.058;2023-02-15T08:08:42;6.80;99.90
17425;DHT22;8830;50.978;5.058;2023-02-15T08:11:15;7.00;99.90
17425;DHT22;8830;50.978;5.058;2023-02-15T08:13:55;7.00;99.90
17425;DHT22;8830;50.978;5.058;2023-02-15T08:16:28;7.00;99.90
17425;DHT22;8830;50.978;5.058;2023-02-15T08:18:56;7.30;99.90
17425;DHT22;8830;50.978;5.058;2023-02-15T08:21:25;7.50;99.90
17425;DHT22;8830;50.978;5.058;2023-02-15T08:23:53;7.40;99.90
17425;DHT22;8830;50.978;5.058;2023-02-15T08:26:21;7.20;99.90
17425;DHT22;8830;50.978;5.058;2023-02-15T08:28:50;7.00;99.90
17425;DHT22;8830;50.978;5.058;2023-02-15T08:31:19;7.10;99.90
17425;DHT22;8830;50.978;5.058;2023-02-15T08:33:50;7.40;99.90
17425;DHT22;8830;50.978;5.058;2023-02-15T08:36:20;6.50;99.90
17425;DHT22;8830;50.978;5.058;2023-02-15T08:38:48;6.50;99.90
17425;DHT22;8830;50.978;5.058;2023-02-15T08:41:17;6.50;99.90
17425;DHT22;8830;50.978;5.058;2023-02-15T08:43:48;5.90;99.90
17425;DHT22;8830;50.978;5.058;2023-02-15T08:46:19;5.90;99.90
17425;DHT22;8830;50.978;5.058;2023-02-15T08:48:48;5.80;99.90
17425;DHT22;8830;50.978;5.058;2023-02-15T08:51:19;5.70;99.90
17425;DHT22;8830;50.978;5.058;2023-02-15T08:53:51;5.60;99.90
17425;DHT22;8830;50.978;5.058;2023-02-15T08:56:22;5.50;99.90
17425;DHT22;8830;50.978;5.058;2023-02-15T08:58:49;5.40;99.90
17425;DHT22;8830;50.978;5.058;2023-02-15T09:01:23;5.40;99.90
17425;DHT22;8830;50.978;5.058;2023-02-15T09:03:51;5.20;99.90
17425;DHT22;8830;50.978;5.058;2023-02-15T09:06:22;5.50;99.90
17425;DHT22;8830;50.978;5.058;2023-02-15T09:08:54;5.50;99.90
17425;DHT22;8830;50.978;5.058;2023-02-15T09:11:35;5.50;99.90
17425;DHT22;8830;50.978;5.058;2023-02-15T09:14:04;5.40;99.90
17425;DHT22;8830;50.978;5.058;2023-02-15T09:16:35;5.50;99.90
17425;DHT22;8830;50.978;5.058;2023-02-15T09:19:11;5.60;99.90
17425;DHT22;8830;50.978;5.058;2023-02-15T09:21:40;5.70;99.90
17425;DHT22;8830;50.978;5.058;2023-02-15T09:24:11;6.00;99.90
17425;DHT22;8830;50.978;5.058;2023-02-15T09:26:40;6.10;99.90
17425;DHT22;8830;50.978;5.058;2023-02-15T09:29:11;6.30;99.90
17425;DHT22;8830;50.978;5.058;2023-02-15T09:31:42;6.50;99.90
17425;DHT22;8830;50.978;5.058;2023-02-15T09:34:16;6.70;99.90
17425;DHT22;8830;50.978;5.058;2023-02-15T09:36:44;6.70;99.90
17425;DHT22;8830;50.978;5.058;2023-02-15T09:39:16;6.80;99.90
17425;DHT22;8830;50.978;5.058;2023-02-15T09:42:11;7.00;99.90
17425;DHT22;8830;50.978;5.058;2023-02-15T09:45:04;7.10;99.90
17425;DHT22;8830;50.978;5.058;2023-02-15T09:47:52;7.20;99.90
17425;DHT22;8830;50.978;5.058;2023-02-15T09:50:29;7.30;99.90
17425;DHT22;8830;50.978;5.058;2023-02-15T09:53:13;7.50;99.90
17425;DHT22;8830;50.978;5.058;2023-02-15T09:55:51;7.60;99.90
17425;DHT22;8830;50.978;5.058;2023-02-15T09:58:27;7.70;99.90
17425;DHT22;8830;50.978;5.058;2023-02-15T10:01:03;7.80;99.90
17425;DHT22;8830;50.978;5.058;2023-02-15T10:03:50;7.90;99.90
17425;DHT22;8830;50.978;5.058;2023-02-15T10:06:31;7.90;99.90
17425;DHT22;8830;50.978;5.058;2023-02-15T10:09:07;8.00;99.90
17425;DHT22;8830;50.978;5.058;2023-02-15T10:11:48;8.10;99.90
17425;DHT22;8830;50.978;5.058;2023-02-15T10:14:43;8.30;99.90
17425;DHT22;8830;50.978;5.058;2023-02-15T10:17:34;8.50;99.90
17425;DHT22;8830;50.978;5.058;2023-02-15T10:20:14;8.50;99.90
17425;DHT22;8830;50.978;5.058;2023-02-15T10:22:57;8.70;99.90
17425;DHT22;8830;50.978;5.058;2023-02-15T10:25:43;8.90;99.90
17425;DHT22;8830;50.978;5.058;2023-02-15T10:28:16;8.90;99.90
17425;DHT22;8830;50.978;5.058;2023-02-15T10:30:47;9.00;99.90
17425;DHT22;8830;50.978;5.058;2023-02-15T10:33:30;9.10;99.90
17425;DHT22;8830;50.978;5.058;2023-02-15T10:36:21;9.20;99.90
17425;DHT22;8830;50.978;5.058;2023-02-15T10:38:53;9.20;99.90
17425;DHT22;8830;50.978;5.058;2023-02-15T10:41:32;11.20;99.90
17425;DHT22;8830;50.978;5.058;2023-02-15T10:44:15;9.70;99.90
17425;DHT22;8830;50.978;5.058;2023-02-15T10:47:31;9.90;99.90
17425;DHT22;8830;50.978;5.058;2023-02-15T10:50:30;10.10;99.90
17425;DHT22;8830;50.978;5.058;2023-02-15T10:53:22;10.20;99.90
17425;DHT22;8830;50.978;5.058;2023-02-15T10:55:58;10.30;99.90
17425;DHT22;8830;50.978;5.058;2023-02-15T10:58:36;10.50;99.90
17425;DHT22;8830;50.978;5.058;2023-02-15T11:01:13;10.60;99.90
17425;DHT22;8830;50.978;5.058;2023-02-15T11:06:50;10.80;99.90
17425;DHT22;8830;50.978;5.058;2023-02-15T11:09:22;10.90;99.90
17425;DHT22;8830;50.978;5.058;2023-02-15T11:11:53;11.00;99.90
17425;DHT22;8830;50.978;5.058;2023-02-15T11:14:27;10.90;99.90
17425;DHT22;8830;50.978;5.058;2023-02-15T11:17:02;10.90;99.90
17425;DHT22;8830;50.978;5.058;2023-02-15T11:19:33;10.90;99.90
17425;DHT22;8830;50.978;5.058;2023-02-15T11:22:04;10.90;99.90
17425;DHT22;8830;50.978;5.058;2023-02-15T11:24:41;11.00;99.90
17425;DHT22;8830;50.978;5.058;2023-02-15T11:27:18;11.10;99.90
17425;DHT22;8830;50.978;5.058;2023-02-15T11:29:52;11.20;99.90
17425;DHT22;8830;50.978;5.058;2023-02-15T11:32:24;11.30;99.90
17425;DHT22;8830;50.978;5.058;2023-02-15T11:34:55;11.30;99.90
17425;DHT22;8830;50.978;5.058;2023-02-15T11:37:30;11.80;99.90
17425;DHT22;8830;50.978;5.058;2023-02-15T11:40:00;11.40;99.90
17425;DHT22;8830;50.978;5.058;2023-02-15T11:42:31;11.60;99.90
17425;DHT22;8830;50.978;5.058;2023-02-15T11:45:04;11.50;99.90
17425;DHT22;8830;50.978;5.058;2023-02-15T11:47:35;11.40;99.90
17425;DHT22;8830;50.978;5.058;2023-02-15T11:50:03;14.00;99.90
17425;DHT22;8830;50.978;5.058;2023-02-15T11:52:32;11.50;99.90
17425;DHT22;8830;50.978;5.058;2023-02-15T11:55:00;11.60;99.90
17425;DHT22;8830;50.978;5.058;2023-02-15T11:57:33;11.70;99.90
17425;DHT22;8830;50.978;5.058;2023-02-15T12:00:04;11.70;99.90
17425;DHT22;8830;50.978;5.058;2023-02-15T12:02:36;11.70;99.90
17425;DHT22;8830;50.978;5.058;2023-02-15T12:05:09;11.90;99.90
17425;DHT22;8830;50.978;5.058;2023-02-15T12:07:42;11.90;99.90
17425;DHT22;8830;50.978;5.058;2023-02-15T12:10:19;12.00;99.90
17425;DHT22;8830;50.978;5.058;2023-02-15T12:12:47;12.10;99.90
17425;DHT22;8830;50.978;5.058;2023-02-15T12:15:14;12.30;99.90
17425;DHT22;8830;50.978;5.058;2023-02-15T12:17:49;12.30;99.90
17425;DHT22;8830;50.978;5.058;2023-02-15T12:20:28;12.50;99.90
17425;DHT22;8830;50.978;5.058;2023-02-15T12:23:00;12.60;99.90
17425;DHT22;8830;50.978;5.058;2023-02-15T12:25:35;12.70;99.90
17425;DHT22;8830;50.978;5.058;2023-02-15T12:28:03;12.70;99.90
17425;DHT22;8830;50.978;5.058;2023-02-15T12:30:32;12.80;99.90
17425;DHT22;8830;50.978;5.058;2023-02-15T12:33:07;12.90;99.90
17425;DHT22;8830;50.978;5.058;2023-02-15T12:35:40;13.00;99.90
17425;DHT22;8830;50.978;5.058;2023-02-15T12:38:26;13.00;99.90
17425;DHT22;8830;50.978;5.058;2023-02-15T12:41:01;12.90;99.90
17425;DHT22;8830;50.978;5.058;2023-02-15T12:43:32;12.80;99.90
17425;DHT22;8830;50.978;5.058;2023-02-15T12:46:20;12.80;99.90
17425;DHT22;8830;50.978;5.058;2023-02-15T12:49:05;12.60;99.90
17425;DHT22;8830;50.978;5.058;2023-02-15T12:51:43;12.60;99.90
17425;DHT22;8830;50.978;5.058;2023-02-15T12:54:24;12.60;99.90
17425;DHT22;8830;50.978;5.058;2023-02-15T12:56:54;12.60;99.90
17425;DHT22;8830;50.978;5.058;2023-02-15T12:59:23;12.70;99.90
17425;DHT22;8830;50.978;5.058;2023-02-15T13:01:51;12.70;99.90
17425;DHT22;8830;50.978;5.058;2023-02-15T13:04:23;12.80;99.90
17425;DHT22;8830;50.978;5.058;2023-02-15T13:06:53;13.50;99.90
17425;DHT22;8830;50.978;5.058;2023-02-15T13:09:26;13.00;99.90
17425;DHT22;8830;50.978;5.058;2023-02-15T13:12:14;13.00;99.90
17425;DHT22;8830;50.978;5.058;2023-02-15T13:14:44;13.40;99.90
17425;DHT22;8830;50.978;5.058;2023-02-15T13:17:13;13.00;99.90
17425;DHT22;8830;50.978;5.058;2023-02-15T13:19:45;13.10;99.90
17425;DHT22;8830;50.978;5.058;2023-02-15T13:22:14;13.90;99.90
17425;DHT22;8830;50.978;5.058;2023-02-15T13:24:45;13.10;99.90
17425;DHT22;8830;50.978;5.058;2023-02-15T13:27:17;13.10;99.90
17425;DHT22;8830;50.978;5.058;2023-02-15T13:29:50;13.00;99.90
17425;DHT22;8830;50.978;5.058;2023-02-15T13:32:27;13.00;99.90
17425;DHT22;8830;50.978;5.058;2023-02-15T13:34:57;12.90;99.90
17425;DHT22;8830;50.978;5.058;2023-02-15T13:37:45;13.00;99.90
17425;DHT22;8830;50.978;5.058;2023-02-15T13:40:22;13.00;99.90
17425;DHT22;8830;50.978;5.058;2023-02-15T13:42:57;13.00;99.90
17425;DHT22;8830;50.978;5.058;2023-02-15T13:45:36;13.10;99.90
17425;DHT22;8830;50.978;5.058;2023-02-15T13:48:14;13.10;99.90
17425;DHT22;8830;50.978;5.058;2023-02-15T13:50:56;13.10;99.90
17425;DHT22;8830;50.978;5.058;2023-02-15T13:56:41;13.20;99.90
17425;DHT22;8830;50.978;5.058;2023-02-15T13:59:28;13.10;99.90
17425;DHT22;8830;50.978;5.058;2023-02-15T14:02:21;13.10;99.90
17425;DHT22;8830;50.978;5.058;2023-02-15T14:05:15;13.20;99.90
17425;DHT22;8830;50.978;5.058;2023-02-15T14:08:01;13.20;99.90
17425;DHT22;8830;50.978;5.058;2023-02-15T14:10:51;13.20;99.90
17425;DHT22;8830;50.978;5.058;2023-02-15T14:16:23;13.20;99.90
17425;DHT22;8830;50.978;5.058;2023-02-15T14:19:09;13.20;99.90
17425;DHT22;8830;50.978;5.058;2023-02-15T14:21:43;13.20;99.90
17425;DHT22;8830;50.978;5.058;2023-02-15T14:24:22;13.20;99.90
17425;DHT22;8830;50.978;5.058;2023-02-15T14:26:59;13.20;99.90
17425;DHT22;8830;50.978;5.058;2023-02-15T14:29:41;13.20;99.90
17425;DHT22;8830;50.978;5.058;2023-02-15T14:32:12;13.20;99.90
17425;DHT22;8830;50.978;5.058;2023-02-15T14:34:44;13.00;99.90
17425;DHT22;8830;50.978;5.058;2023-02-15T14:37:18;13.10;99.90
17425;DHT22;8830;50.978;5.058;2023-02-15T14:39:53;13.00;99.90
17425;DHT22;8830;50.978;5.058;2023-02-15T14:42:43;12.90;99.90
17425;DHT22;8830;50.978;5.058;2023-02-15T14:45:20;12.80;99.90
17425;DHT22;8830;50.978;5.058;2023-02-15T14:47:59;12.90;99.90
17425;DHT22;8830;50.978;5.058;2023-02-15T14:50:39;12.80;99.90
17425;DHT22;8830;50.978;5.058;2023-02-15T14:53:34;12.80;99.90
17425;DHT22;8830;50.978;5.058;2023-02-15T14:56:21;12.80;99.90
17425;DHT22;8830;50.978;5.058;2023-02-15T14:59:17;12.70;99.90
17425;DHT22;8830;50.978;5.058;2023-02-15T15:02:03;12.60;99.90
17425;DHT22;8830;50.978;5.058;2023-02-15T15:04:39;12.50;99.90
17425;DHT22;8830;50.978;5.058;2023-02-15T15:07:17;12.60;99.90
17425;DHT22;8830;50.978;5.058;2023-02-15T15:09:48;12.50;99.90
17425;DHT22;8830;50.978;5.058;2023-02-15T15:12:39;12.40;99.90
17425;DHT22;8830;50.978;5.058;2023-02-15T15:15:09;12.40;99.90
17425;DHT22;8830;50.978;5.058;2023-02-15T15:18:09;12.70;99.90
17425;DHT22;8830;50.978;5.058;2023-02-15T15:20:43;12.30;99.90
17425;DHT22;8830;50.978;5.058;2023-02-15T15:23:40;12.20;99.90
17425;DHT22;8830;50.978;5.058;2023-02-15T15:26:28;12.10;99.90
17425;DHT22;8830;50.978;5.058;2023-02-15T15:29:00;12.10;99.90
17425;DHT22;8830;50.978;5.058;2023-02-15T15:31:43;12.10;99.90
17425;DHT22;8830;50.978;5.058;2023-02-15T15:34:24;12.10;99.90
17425;DHT22;8830;50.978;5.058;2023-02-15T15:46:17;11.80;99.90
17425;DHT22;8830;50.978;5.058;2023-02-15T15:48:49;11.70;99.90
17425;DHT22;8830;50.978;5.058;2023-02-15T15:51:20;11.70;99.90
17425;DHT22;8830;50.978;5.058;2023-02-15T15:53:49;11.60;99.90
17425;DHT22;8830;50.978;5.058;2023-02-15T15:56:21;11.60;99.90
17425;DHT22;8830;50.978;5.058;2023-02-15T15:58:54;11.60;99.90
17425;DHT22;8830;50.978;5.058;2023-02-15T16:01:27;11.70;99.90
17425;DHT22;8830;50.978;5.058;2023-02-15T16:03:56;11.40;99.90
17425;DHT22;8830;50.978;5.058;2023-02-15T16:06:34;11.40;99.90
17425;DHT22;8830;50.978;5.058;2023-02-15T16:09:17;11.30;99.90
17425;DHT22;8830;50.978;5.058;2023-02-15T16:11:48;11.30;99.90
17425;DHT22;8830;50.978;5.058;2023-02-15T16:14:25;11.10;99.90
17425;DHT22;8830;50.978;5.058;2023-02-15T16:16:56;11.70;99.90
17425;DHT22;8830;50.978;5.058;2023-02-15T16:19:27;11.20;99.90
17425;DHT22;8830;50.978;5.058;2023-02-15T16:21:55;10.80;99.90
17425;DHT22;8830;50.978;5.058;2023-02-15T16:27:38;10.80;99.90
17425;DHT22;8830;50.978;5.058;2023-02-15T16:30:26;10.70;99.90
17425;DHT22;8830;50.978;5.058;2023-02-15T16:33:02;10.60;99.90
17425;DHT22;8830;50.978;5.058;2023-02-15T16:37:57;10.40;99.90
17425;DHT22;8830;50.978;5.058;2023-02-15T16:40:39;10.40;99.90
17425;DHT22;8830;50.978;5.058;2023-02-15T16:43:14;10.30;99.90
17425;DHT22;8830;50.978;5.058;2023-02-15T16:45:43;10.90;99.90
17425;DHT22;8830;50.978;5.058;2023-02-15T16:48:15;10.10;99.90
17425;DHT22;8830;50.978;5.058;2023-02-15T16:50:48;10.10;99.90
17425;DHT22;8830;50.978;5.058;2023-02-15T16:53:19;10.10;99.90
17425;DHT22;8830;50.978;5.058;2023-02-15T16:55:50;10.00;99.90
17425;DHT22;8830;50.978;5.058;2023-02-15T16:58:23;9.90;99.90
17425;DHT22;8830;50.978;5.058;2023-02-15T17:00:56;9.80;99.90
17425;DHT22;8830;50.978;5.058;2023-02-15T17:03:24;9.70;99.90
17425;DHT22;8830;50.978;5.058;2023-02-15T17:05:53;9.50;99.90
17425;DHT22;8830;50.978;5.058;2023-02-15T17:08:25;9.50;99.90
17425;DHT22;8830;50.978;5.058;2023-02-15T17:11:12;10.00;99.90